This is the latest recevied weather packets stored in our database for station/object DB8NZ-11. If no packets are shown the sender has not sent any weather packets the latest 10 day(s).
| Time | Temp. | Humidity | Pressure | Rain* | Wind** | Luminosity | Snow |
|---|---|---|---|---|---|---|---|
| 1777324499 | 10° C | 59% | 1024.4 hPa | - | - | - | - |
| 1777323599 | 10° C | 58% | 1024.4 hPa | - | - | - | - |
| 1777322699 | 10° C | 56% | 1024.4 hPa | - | - | - | - |
| 1777321799 | 10° C | 56% | 1024.3 hPa | - | - | - | - |
| 1777320899 | 10° C | 55% | 1024.4 hPa | - | - | - | - |
| 1777319999 | 10.56° C | 54% | 1024.3 hPa | - | - | - | - |
| 1777319099 | 11.11° C | 53% | 1024.2 hPa | - | - | - | - |
| 1777318199 | 11.67° C | 50% | 1024.4 hPa | - | - | - | - |
| 1777317299 | 12.22° C | 50% | 1024.3 hPa | - | - | - | - |
| 1777316398 | 13.33° C | 49% | 1024.3 hPa | - | - | - | - |
| 1777315498 | 14.44° C | 46% | 1024.3 hPa | - | - | - | - |
| 1777314598 | 15.56° C | 43% | 1024.1 hPa | - | - | - | - |
| 1777313698 | 17.22° C | 40% | 1023.9 hPa | - | - | - | - |
| 1777313122 | 17.78° C | 38% | 1024 hPa | - | - | - | - |
| 1777312221 | 19.44° C | 34% | 1024 hPa | - | - | - | - |
| 1777311321 | 20.56° C | 30% | 1024 hPa | - | - | - | - |
| 1777310421 | 21.11° C | 27% | 1023.9 hPa | - | - | - | - |
| 1777309521 | 20.56° C | 25% | 1023.9 hPa | - | - | - | - |
| 1777308621 | 22.22° C | 24% | 1024 hPa | - | - | - | - |
| 1777307721 | 21.11° C | 26% | 1024.1 hPa | - | - | - | - |
| 1777306821 | 21.67° C | 25% | 1024.2 hPa | - | - | - | - |
| 1777305921 | 22.22° C | 22% | 1024.3 hPa | - | - | - | - |
| 1777305021 | 22.78° C | 23% | 1024.3 hPa | - | - | - | - |
| 1777304121 | 23.33° C | 22% | 1024.3 hPa | - | - | - | - |
| 1777303220 | 23.33° C | 22% | 1024.5 hPa | - | - | - | - |
* Rain since midnight (hover to see other rain measurements)
** Current wind speed in m/s (hover to see current wind gust speed)